.
WxDataArchive / Data Records for 2010-11-02
2010-11-01 November 2010 2010-11-03

Data Records for Tuesday, 02 November 2010

Time	Temp	Chill	HIndex	Humid	Dewpt	 Wind 	HiWind	WindDir	Rain 	Barom 
-----	----	-----	------	-----	-----	------	------	-------	-----	----- 
00:00	33.8	33.8	33.8	69	24.7	0	0	---	0.00	30.498 
00:05	33.5	33.5	33.5	69	24.4	0	0	---	0.00	30.498 
00:10	33.1	33.1	33.1	70	24.4	0	0	---	0.00	30.498 
00:15	32.7	32.7	32.7	70	24.0	0	0	---	0.00	30.500 
00:20	32.4	32.4	32.4	71	24.1	0	0	---	0.00	30.500 
00:25	32.1	32.1	32.1	72	24.1	0	0	---	0.00	30.500 
00:30	31.6	31.6	31.6	73	24.0	0	0	---	0.00	30.498 
00:35	31.3	31.3	31.3	74	24.0	0	0	---	0.00	30.498 
00:40	31.0	31.0	31.0	75	24.0	0	0	---	0.00	30.498 
00:45	30.9	30.9	30.9	76	24.2	0	0	---	0.00	30.497 
00:50	30.6	30.6	30.6	76	24.0	0	0	---	0.00	30.497 
00:55	30.4	30.4	30.4	77	24.1	0	0	---	0.00	30.497 
01:00	30.3	30.3	30.3	78	24.3	0	0	---	0.00	30.493 
01:05	30.3	30.3	30.3	78	24.3	0	0	---	0.00	30.493 
01:10	30.0	30.0	30.0	79	24.3	0	0	---	0.00	30.493 
01:15	29.8	29.8	29.8	79	24.1	0	0	---	0.00	30.491 
01:20	29.7	29.7	29.7	80	24.3	0	0	---	0.00	30.491 
01:25	29.5	29.5	29.5	80	24.1	0	0	---	0.00	30.491 
01:30	29.3	29.3	29.3	80	23.9	0	0	---	0.00	30.492 
01:35	29.1	29.1	29.1	81	24.0	0	0	---	0.00	30.492 
01:40	29.1	29.1	29.1	81	24.0	0	0	---	0.00	30.492 
01:45	29.0	29.0	29.0	82	24.2	0	0	---	0.00	30.490 
01:50	28.8	28.8	28.8	82	24.0	0	0	---	0.00	30.490 
01:55	28.7	28.7	28.7	82	23.9	0	0	---	0.00	30.490 
02:00	28.5	28.5	28.5	83	24.0	0	0	---	0.00	30.495 
02:05	28.5	28.5	28.5	83	24.0	0	0	---	0.00	30.495 
02:10	28.4	28.4	28.4	84	24.2	0	0	---	0.00	30.495 
02:15	28.2	28.2	28.2	84	24.0	0	0	---	0.00	30.493 
02:20	28.2	28.2	28.2	84	24.0	0	0	---	0.00	30.493 
02:25	28.2	28.2	28.2	84	24.0	0	0	---	0.00	30.493 
02:30	28.2	28.2	28.2	85	24.3	0	0	---	0.00	30.492 
02:35	28.2	28.2	28.2	85	24.3	0	0	---	0.00	30.492 
02:40	28.2	28.2	28.2	85	24.3	0	0	---	0.00	30.492 
02:45	28.2	28.2	28.2	86	24.6	0	0	---	0.00	30.487 
02:50	28.2	28.2	28.2	86	24.6	0	0	---	0.00	30.487 
02:55	28.1	28.1	28.1	86	24.5	0	0	---	0.00	30.487 
03:00	28.1	28.1	28.1	86	24.5	0	0	---	0.00	30.486 
03:05	27.9	27.9	27.9	86	24.3	0	0	---	0.00	30.486 
03:10	27.9	27.9	27.9	86	24.3	0	0	---	0.00	30.486 
03:15	27.9	27.9	27.9	87	24.5	0	0	---	0.00	30.483 
03:20	27.8	27.8	27.8	87	24.4	0	0	---	0.00	30.483 
03:25	27.6	27.6	27.6	87	24.2	0	0	---	0.00	30.483 
03:30	27.6	27.6	27.6	87	24.2	0	0	---	0.00	30.485 
03:35	27.5	27.5	27.5	87	24.1	0	0	---	0.00	30.485 
03:40	27.5	27.5	27.5	87	24.1	0	0	---	0.00	30.485 
03:45	27.5	27.5	27.5	87	24.1	0	0	---	0.00	30.482 
03:50	27.3	27.3	27.3	87	24.0	0	0	---	0.00	30.482 
03:55	27.2	27.2	27.2	87	23.9	0	0	---	0.00	30.482 
04:00	27.2	27.2	27.2	88	24.1	0	0	---	0.00	30.480 
04:05	27.2	27.2	27.2	88	24.1	0	0	---	0.00	30.480 
04:10	27.2	27.2	27.2	88	24.1	0	0	---	0.00	30.480 
04:15	27.2	27.2	27.2	88	24.1	0	0	---	0.00	30.484 
04:20	27.2	27.2	27.2	88	24.1	0	0	---	0.00	30.484 
04:25	27.3	27.3	27.3	88	24.2	0	0	---	0.00	30.484 
04:30	27.3	27.3	27.3	88	24.2	0	0	---	0.00	30.483 
04:35	27.5	27.5	27.5	89	24.7	0	0	---	0.00	30.483 
04:40	27.5	27.5	27.5	89	24.7	0	0	---	0.00	30.483 
04:45	27.6	27.6	27.6	89	24.8	0	0	---	0.00	30.476 
04:50	27.9	27.9	27.9	89	25.1	0	0	---	0.00	30.476 
04:55	28.2	28.2	28.2	89	25.4	0	1	112	0.00	30.476 
05:00	28.7	28.7	28.7	88	25.6	0	1	112	0.00	30.473 
05:05	29.0	29.0	29.0	88	25.9	0	0	---	0.00	30.473 
05:10	29.1	29.1	29.1	87	25.7	0	0	---	0.00	30.473 
05:15	29.3	29.3	29.3	86	25.6	0	1	112	0.00	30.469 
05:20	29.4	29.4	29.4	86	25.7	0	1	112	0.00	30.469 
05:25	29.4	29.4	29.4	86	25.7	0	0	---	0.00	30.469 
05:30	29.4	29.4	29.4	85	25.5	0	1	112	0.00	30.467 
05:35	29.5	29.5	29.5	85	25.6	0	1	112	0.00	30.467 
05:40	29.5	29.5	29.5	85	25.6	0	1	112	0.00	30.467 
05:45	29.7	29.7	29.7	84	25.5	0	1	112	0.00	30.464 
05:50	29.8	29.8	29.8	84	25.6	0	2	112	0.00	30.464 
05:55	29.8	29.8	29.8	84	25.6	0	1	112	0.00	30.464 
06:00	29.8	29.8	29.8	84	25.6	0	1	112	0.00	30.468 
06:05	30.0	30.0	30.0	84	25.8	0	1	112	0.00	30.468 
06:10	30.0	30.0	30.0	84	25.8	0	1	112	0.00	30.468 
06:15	30.0	30.0	30.0	84	25.8	0	1	112	0.00	30.475 
06:20	30.0	30.0	30.0	84	25.8	0	0	---	0.00	30.475 
06:25	30.0	30.0	30.0	84	25.8	0	1	112	0.00	30.475 
06:30	30.1	30.1	30.1	83	25.6	0	1	112	0.00	30.482 
06:35	30.1	30.1	30.1	83	25.6	0	2	112	0.00	30.482 
06:40	30.1	30.1	30.1	83	25.6	0	1	112	0.00	30.482 
06:45	30.1	30.1	30.1	83	25.6	0	0	---	0.00	30.485 
06:50	30.1	30.1	30.1	83	25.6	0	1	112	0.00	30.485 
06:55	30.1	30.1	30.1	83	25.6	0	1	112	0.00	30.485 
07:00	30.1	30.1	30.1	83	25.6	0	0	---	0.00	30.485 
07:05	30.1	30.1	30.1	83	25.6	0	1	112	0.00	30.485 
07:10	30.1	30.1	30.1	82	25.3	0	1	112	0.00	30.485 
07:15	30.0	30.0	30.0	82	25.2	0	0	---	0.00	30.491 
07:20	30.0	30.0	30.0	82	25.2	0	0	---	0.00	30.491 
07:25	29.8	29.8	29.8	83	25.3	0	0	---	0.00	30.491 
07:30	29.7	29.7	29.7	83	25.2	0	0	---	0.00	30.492 
07:35	29.5	29.5	29.5	83	25.0	0	0	---	0.00	30.492 
07:40	29.4	29.4	29.4	83	24.9	0	0	---	0.00	30.492 
07:45	29.4	29.4	29.4	83	24.9	0	0	---	0.00	30.496 
07:50	29.1	29.1	29.1	83	24.6	0	0	---	0.00	30.496 
07:55	29.0	29.0	29.0	84	24.8	0	0	---	0.00	30.496 
08:00	28.8	28.8	28.8	84	24.6	0	0	---	0.00	30.500 
08:05	28.7	28.7	28.7	84	24.5	0	0	---	0.00	30.500 
08:10	28.5	28.5	28.5	84	24.3	0	0	---	0.00	30.500 
08:15	28.2	28.2	28.2	84	24.0	0	0	---	0.00	30.507 
08:20	28.1	28.1	28.1	84	23.9	0	0	---	0.00	30.507 
08:25	27.9	27.9	27.9	84	23.7	0	0	---	0.00	30.507 
08:30	27.8	27.8	27.8	85	23.9	0	0	---	0.00	30.500 
08:35	27.6	27.6	27.6	85	23.7	0	0	---	0.00	30.500 
08:40	27.5	27.5	27.5	85	23.6	0	0	---	0.00	30.500 
08:45	27.5	27.5	27.5	86	23.9	0	0	---	0.00	30.502 
08:50	27.5	27.5	27.5	86	23.9	0	0	---	0.00	30.502 
08:55	27.8	27.8	27.8	87	24.4	0	0	---	0.00	30.502 
09:00	28.1	28.1	28.1	87	24.7	0	0	---	0.00	30.512 
09:05	28.7	28.7	28.7	88	25.6	0	0	---	0.00	30.512 
09:10	29.7	29.7	29.7	88	26.6	0	1	225	0.00	30.512 
09:15	30.9	30.9	30.9	88	27.8	0	1	225	0.00	30.516 
09:20	31.9	31.9	31.9	86	28.2	0	1	225	0.00	30.516 
09:25	32.8	32.8	32.8	85	28.8	0	0	---	0.00	30.516 
09:30	33.8	33.8	33.8	83	29.2	0	0	---	0.00	30.519 
09:35	34.4	34.4	34.4	81	29.2	0	1	225	0.00	30.519 
09:40	34.9	34.9	34.9	79	29.1	0	2	135	0.00	30.519 
09:45	35.3	35.3	35.3	77	28.8	0	2	135	0.00	30.517 
09:50	35.6	35.6	35.6	76	28.8	0	2	135	0.00	30.517 
09:55	36.0	36.0	36.0	76	29.2	0	3	135	0.00	30.517 
10:00	36.5	36.5	36.5	74	29.0	0	1	135	0.00	30.508 
10:05	37.0	37.0	37.0	73	29.2	0	3	135	0.00	30.508 
10:10	37.5	37.5	37.5	71	29.0	1	3	135	0.00	30.508 
10:15	37.8	37.8	37.8	71	29.3	1	3	112	0.00	30.500 
10:20	38.8	38.8	38.8	68	29.2	2	5	90	0.00	30.500 
10:25	39.5	39.5	39.5	65	28.7	3	6	90	0.00	30.500 
10:30	40.2	40.2	40.2	65	29.4	1	5	90	0.00	30.488 
10:35	40.6	40.6	40.6	62	28.6	3	5	90	0.00	30.488 
10:40	41.1	41.1	41.1	60	28.3	2	7	90	0.00	30.488 
10:45	41.3	41.3	41.3	58	27.7	3	9	90	0.00	30.485 
10:50	41.6	41.6	41.6	58	27.9	3	5	112	0.00	30.485 
10:55	42.1	42.1	42.1	57	28.0	2	7	90	0.00	30.485 
11:00	42.6	42.6	42.6	56	28.0	2	5	90	0.00	30.484 
11:05	43.1	43.1	43.1	55	28.0	1	6	112	0.00	30.484 
11:10	43.3	43.3	43.3	55	28.2	2	5	112	0.00	30.484 
11:15	43.5	43.5	43.5	54	28.0	3	10	112	0.00	30.477 
11:20	43.6	43.6	43.6	54	28.1	3	9	68	0.00	30.477 
11:25	43.8	43.8	43.8	53	27.8	3	7	90	0.00	30.477 
11:30	44.1	44.1	44.1	53	28.1	3	7	112	0.00	30.487 
11:35	44.3	44.3	44.3	53	28.3	3	9	112	0.00	30.487 
11:40	44.6	44.6	44.6	52	28.1	3	9	112	0.00	30.487 
11:45	44.5	42.5	44.5	53	28.4	4	10	112	0.00	30.483 
11:50	44.5	44.5	44.5	53	28.4	2	6	90	0.00	30.483 
11:55	44.6	44.6	44.6	52	28.1	3	9	90	0.00	30.483 
12:00	44.9	44.9	44.9	53	28.8	3	9	90	0.00	30.490 
12:05	44.9	44.9	44.9	53	28.8	2	6	90	0.00	30.490 
12:10	45.1	45.1	45.1	54	29.5	3	9	90	0.00	30.490 
12:15	45.4	45.4	45.4	53	29.3	2	7	112	0.00	30.486 
12:20	45.2	43.3	45.2	53	29.1	4	9	90	0.00	30.486 
12:25	45.2	45.2	45.2	53	29.1	2	10	90	0.00	30.486 
12:30	45.5	45.5	45.5	54	29.8	2	6	112	0.00	30.485 
12:35	46.0	46.0	46.0	52	29.4	3	7	90	0.00	30.485 
12:40	46.2	46.2	46.2	52	29.6	3	7	90	0.00	30.485 
12:45	46.4	46.4	46.4	51	29.3	3	6	90	0.00	30.484 
12:50	46.4	46.4	46.4	51	29.3	2	6	90	0.00	30.484 
12:55	46.7	46.7	46.7	51	29.5	3	9	90	0.00	30.484 
13:00	46.8	46.8	46.8	50	29.2	3	7	90	0.00	30.472 
13:05	47.1	47.1	47.1	49	28.9	3	10	90	0.00	30.472 
13:10	47.0	45.4	47.0	50	29.3	4	10	90	0.00	30.472 
13:15	47.1	47.1	47.1	48	28.4	3	9	112	0.00	30.462 
13:20	47.1	47.1	47.1	49	28.9	3	6	112	0.00	30.462 
13:25	47.6	47.6	47.6	47	28.4	3	7	112	0.00	30.462 
13:30	47.7	47.7	47.7	46	27.9	3	9	68	0.00	30.452 
13:35	48.0	48.0	48.0	48	29.3	2	5	90	0.00	30.452 
13:40	48.0	48.0	48.0	47	28.7	3	8	90	0.00	30.452 
13:45	48.2	46.8	48.2	46	28.4	4	11	90	0.00	30.438 
13:50	48.5	48.5	48.5	46	28.7	3	8	90	0.00	30.438 
13:55	48.8	47.5	48.8	45	28.4	4	7	90	0.00	30.438 
14:00	48.8	48.8	48.8	45	28.4	3	6	90	0.00	30.428 
14:05	48.6	48.6	48.6	46	28.8	2	7	112	0.00	30.428 
14:10	48.3	48.3	48.3	46	28.5	2	5	90	0.00	30.428 
14:15	48.2	48.2	48.2	45	27.9	2	6	90	0.00	30.425 
14:20	48.5	48.5	48.5	45	28.1	3	7	90	0.00	30.425 
14:25	48.6	48.6	48.6	44	27.7	3	7	90	0.00	30.425 
14:30	48.8	48.8	48.8	45	28.4	2	6	90	0.00	30.413 
14:35	49.1	49.1	49.1	44	28.1	3	9	90	0.00	30.413 
14:40	49.1	49.1	49.1	45	28.7	2	10	90	0.00	30.413 
14:45	49.1	49.1	49.1	44	28.1	3	7	90	0.00	30.401 
14:50	49.4	49.4	49.4	44	28.4	2	6	112	0.00	30.401 
14:55	49.5	49.5	49.5	44	28.5	2	5	90	0.00	30.401 
15:00	49.5	49.5	49.5	44	28.5	3	10	90	0.00	30.390 
15:05	49.2	47.9	49.2	44	28.2	4	10	90	0.00	30.390 
15:10	49.4	48.2	49.4	43	27.9	4	11	112	0.00	30.390 
15:15	49.5	47.6	49.5	43	27.9	5	11	90	0.00	30.389 
15:20	49.6	49.6	49.6	44	28.6	2	10	68	0.00	30.389 
15:25	49.9	49.9	49.9	43	28.3	2	7	90	0.00	30.389 
15:30	49.8	49.8	49.8	42	27.6	2	7	90	0.00	30.385 
15:35	49.9	49.9	49.9	41	27.1	2	7	112	0.00	30.385 
15:40	49.9	49.9	49.9	42	27.7	2	9	90	0.00	30.385 
15:45	49.9	49.9	49.9	41	27.1	2	10	112	0.00	30.377 
15:50	49.8	48.0	49.8	41	27.1	5	11	90	0.00	30.377 
15:55	49.8	49.8	49.8	42	27.6	3	6	90	0.00	30.377 
16:00	49.9	48.8	49.9	40	26.6	4	10	112	0.00	30.374 
16:05	49.9	49.9	49.9	41	27.1	3	6	90	0.00	30.374 
16:10	49.9	49.9	49.9	41	27.1	2	6	90	0.00	30.374 
16:15	49.8	49.8	49.8	41	27.1	3	7	90	0.00	30.367 
16:20	49.8	49.8	49.8	41	27.1	3	9	90	0.00	30.367 
16:25	49.9	49.9	49.9	40	26.6	3	9	90	0.00	30.367 
16:30	49.8	48.6	49.8	41	27.1	4	7	90	0.00	30.362 
16:35	49.6	48.4	49.6	40	26.3	4	11	90	0.00	30.362 
16:40	49.5	48.3	49.5	41	26.8	4	11	90	0.00	30.362 
16:45	49.4	49.4	49.4	42	27.3	2	7	90	0.00	30.360 
16:50	49.4	49.4	49.4	42	27.3	3	11	90	0.00	30.360 
16:55	49.4	49.4	49.4	41	26.7	2	9	90	0.00	30.360 
17:00	49.2	49.2	49.2	41	26.5	3	6	90	0.00	30.361 
17:05	49.2	49.2	49.2	42	27.1	1	5	90	0.00	30.361 
17:10	49.2	49.2	49.2	42	27.1	2	6	90	0.00	30.361 
17:15	49.1	49.1	49.1	41	26.4	3	9	90	0.00	30.358 
17:20	49.1	49.1	49.1	42	27.0	2	5	112	0.00	30.358 
17:25	48.9	48.9	48.9	42	26.8	3	6	90	0.00	30.358 
17:30	48.8	48.8	48.8	42	26.7	2	8	90	0.00	30.356 
17:35	48.6	48.6	48.6	43	27.1	1	4	90	0.00	30.356 
17:40	48.5	48.5	48.5	42	26.5	2	5	90	0.00	30.356 
17:45	48.3	48.3	48.3	42	26.3	2	4	90	0.00	30.350 
17:50	48.2	48.2	48.2	43	26.8	2	6	112	0.00	30.350 
17:55	48.0	48.0	48.0	43	26.6	2	6	90	0.00	30.350 
18:00	47.9	47.9	47.9	43	26.5	2	4	90	0.00	30.351 
18:05	47.7	47.7	47.7	44	26.9	2	7	90	0.00	30.351 
18:10	47.4	47.4	47.4	44	26.6	1	4	68	0.00	30.351 
18:15	47.1	47.1	47.1	45	26.9	1	3	90	0.00	30.347 
18:20	46.8	46.8	46.8	46	27.1	1	3	90	0.00	30.347 
18:25	46.5	46.5	46.5	46	26.8	0	1	90	0.00	30.347 
18:30	46.1	46.1	46.1	47	27.0	0	1	90	0.00	30.345 
18:35	45.7	45.7	45.7	48	27.1	0	1	90	0.00	30.345 
18:40	45.2	45.2	45.2	49	27.2	0	0	---	0.00	30.345 
18:45	44.8	44.8	44.8	49	26.8	0	0	---	0.00	30.352 
18:50	44.2	44.2	44.2	50	26.8	0	0	---	0.00	30.352 
18:55	43.8	43.8	43.8	52	27.3	0	0	---	0.00	30.352 
19:00	43.2	43.2	43.2	53	27.2	0	0	---	0.00	30.357 
19:05	42.6	42.6	42.6	54	27.1	0	0	---	0.00	30.357 
19:10	42.1	42.1	42.1	55	27.1	0	0	---	0.00	30.357 
19:15	41.6	41.6	41.6	56	27.1	0	0	---	0.00	30.359 
19:20	41.2	41.2	41.2	58	27.6	0	1	90	0.00	30.359 
19:25	40.9	40.9	40.9	58	27.3	0	0	---	0.00	30.359 
19:30	40.6	40.6	40.6	59	27.4	0	0	---	0.00	30.363 
19:35	40.3	40.3	40.3	59	27.1	0	1	90	0.00	30.363 
19:40	40.3	40.3	40.3	60	27.5	0	2	90	0.00	30.363 
19:45	40.5	40.5	40.5	59	27.3	0	0	---	0.00	30.358 
19:50	40.3	40.3	40.3	60	27.5	0	0	---	0.00	30.358 
19:55	40.2	40.2	40.2	60	27.4	0	1	90	0.00	30.358 
20:00	40.1	40.1	40.1	60	27.3	0	0	---	0.00	30.367 
20:05	39.9	39.9	39.9	61	27.6	0	1	90	0.00	30.367 
20:10	40.1	40.1	40.1	60	27.3	0	2	90	0.00	30.367 
20:15	40.2	40.2	40.2	61	27.8	0	1	90	0.00	30.366 
20:20	40.1	40.1	40.1	61	27.7	0	1	90	0.00	30.366 
20:25	40.1	40.1	40.1	62	28.1	0	1	90	0.00	30.366 
20:30	39.8	39.8	39.8	62	27.9	0	1	90	0.00	30.365 
20:35	39.6	39.6	39.6	63	28.1	0	1	90	0.00	30.365 
20:40	39.5	39.5	39.5	64	28.3	0	1	90	0.00	30.365 
20:45	39.3	39.3	39.3	64	28.2	0	1	90	0.00	30.362 
20:50	39.2	39.2	39.2	65	28.4	0	0	---	0.00	30.362 
20:55	39.1	39.1	39.1	65	28.3	0	1	90	0.00	30.362 
21:00	38.9	38.9	38.9	65	28.2	0	1	90	0.00	30.354 
21:05	38.6	38.6	38.6	66	28.2	0	1	90	0.00	30.354 
21:10	38.5	38.5	38.5	67	28.5	0	0	---	0.00	30.354 
21:15	38.3	38.3	38.3	66	28.0	0	0	---	0.00	30.346 
21:20	38.0	38.0	38.0	67	28.0	0	0	---	0.00	30.346 
21:25	37.6	37.6	37.6	67	27.7	0	0	---	0.00	30.346 
21:30	37.2	37.2	37.2	68	27.6	0	0	---	0.00	30.344 
21:35	36.9	36.9	36.9	69	27.7	0	0	---	0.00	30.344 
21:40	36.5	36.5	36.5	70	27.7	0	0	---	0.00	30.344 
21:45	36.0	36.0	36.0	70	27.2	0	0	---	0.00	30.340 
21:50	35.8	35.8	35.8	71	27.3	0	0	---	0.00	30.340 
21:55	35.3	35.3	35.3	72	27.2	0	0	---	0.00	30.340 
22:00	35.0	35.0	35.0	73	27.2	0	0	---	0.00	30.332 
22:05	34.9	34.9	34.9	74	27.5	0	0	---	0.00	30.332 
22:10	34.6	34.6	34.6	75	27.5	0	0	---	0.00	30.332 
22:15	34.3	34.3	34.3	75	27.2	0	0	---	0.00	30.326 
22:20	34.0	34.0	34.0	76	27.2	0	0	---	0.00	30.326 
22:25	33.5	33.5	33.5	76	26.8	0	0	---	0.00	30.326 
22:30	33.2	33.2	33.2	77	26.8	0	0	---	0.00	30.327 
22:35	32.9	32.9	32.9	78	26.8	0	0	---	0.00	30.327 
22:40	32.7	32.7	32.7	78	26.6	0	0	---	0.00	30.327 
22:45	32.5	32.5	32.5	79	26.7	0	0	---	0.00	30.326 
22:50	32.2	32.2	32.2	80	26.7	0	0	---	0.00	30.326 
22:55	31.9	31.9	31.9	80	26.4	0	0	---	0.00	30.326 
23:00	31.8	31.8	31.8	81	26.6	0	0	---	0.00	30.325 
23:05	31.5	31.5	31.5	81	26.4	0	0	---	0.00	30.325 
23:10	31.2	31.2	31.2	82	26.4	0	0	---	0.00	30.325 
23:15	31.0	31.0	31.0	82	26.2	0	0	---	0.00	30.314 
23:20	30.7	30.7	30.7	83	26.2	0	0	---	0.00	30.314 
23:25	30.6	30.6	30.6	84	26.4	0	0	---	0.00	30.314 
23:30	30.4	30.4	30.4	84	26.2	0	0	---	0.00	30.313 
23:35	30.3	30.3	30.3	84	26.1	0	0	---	0.00	30.313 
23:40	30.1	30.1	30.1	84	25.9	0	0	---	0.00	30.313 
23:45	30.0	30.0	30.0	85	26.0	0	0	---	0.00	30.313 
23:50	29.8	29.8	29.8	85	25.9	0	0	---	0.00	30.313 
23:55	29.7	29.7	29.7	85	25.8	0	0	---	0.00	30.313 

CoCoRaHS
IN-AL-39
A2 Web Hosting
Creative Commons License
GoDaddy
search engine by freefind advanced

loaded 2018-11-15 13:30:57 • last modified 2010-11-18 10:43:29
Privacy PolicyDisclaimer
• wx.awcolley.com is powered by PmWiki v.2002016 •
• all content (unless otherwise noted) © 2018 A W Colley